createdAt,value
2022-10-29T00:00:08.199Z,24.70
2022-10-29T00:03:14.159Z,15.07
2022-10-29T00:06:17.821Z,17.75
2022-10-29T00:09:21.447Z,19.52
2022-10-29T00:12:25.068Z,24.80
2022-10-29T00:15:28.713Z,23.50
2022-10-29T00:18:34.234Z,18.38
2022-10-29T00:21:39.116Z,15.15
2022-10-29T00:24:42.757Z,19.83
2022-10-29T00:27:46.348Z,15.68
2022-10-29T00:30:49.976Z,19.45
2022-10-29T00:33:56.767Z,27.92
2022-10-29T00:37:00.433Z,21.17
2022-10-29T00:40:04.294Z,21.30
2022-10-29T00:46:23.390Z,16.60
2022-10-29T00:49:29.347Z,23.58
2022-10-29T00:52:35.876Z,14.52
2022-10-29T00:55:39.585Z,18.63
2022-10-29T00:58:43.916Z,17.13
2022-10-29T01:01:49.254Z,18.02
2022-10-29T01:04:55.171Z,17.05
2022-10-29T01:07:58.817Z,20.73
2022-10-29T01:11:13.176Z,19.38
2022-10-29T01:14:26.141Z,13.55
2022-10-29T01:17:38.411Z,10.88
2022-10-29T01:21:20.183Z,16.98
2022-10-29T01:24:55.128Z,15.63
2022-10-29T01:28:12.607Z,15.20
2022-10-29T01:31:29.625Z,18.13
2022-10-29T01:34:41.170Z,22.10
2022-10-29T01:38:05.752Z,16.95
2022-10-29T01:41:17.521Z,18.00
2022-10-29T01:44:31.552Z,18.80
2022-10-29T01:47:42.152Z,19.90
2022-10-29T01:50:49.397Z,21.42
2022-10-29T01:53:53.490Z,20.13
2022-10-29T01:56:57.889Z,13.65
2022-10-29T02:00:08.823Z,16.45
2022-10-29T02:03:35.046Z,21.58
2022-10-29T02:06:51.950Z,17.40
2022-10-29T02:10:03.631Z,16.35
2022-10-29T02:13:08.689Z,20.05
2022-10-29T02:16:14.731Z,14.68
2022-10-29T02:19:20.676Z,21.02
2022-10-29T02:22:24.285Z,19.40
2022-10-29T02:25:28.248Z,28.67
2022-10-29T02:28:35.929Z,20.23
2022-10-29T02:31:39.536Z,12.23
2022-10-29T02:34:45.097Z,15.95
2022-10-29T02:37:48.756Z,15.43
2022-10-29T02:40:52.368Z,18.08
2022-10-29T02:43:56.028Z,21.60
2022-10-29T02:46:59.645Z,18.42
2022-10-29T02:50:05.699Z,17.90
2022-10-29T02:53:09.350Z,16.52
2022-10-29T02:56:13.235Z,13.20
2022-10-29T02:59:16.825Z,23.48
2022-10-29T03:02:20.558Z,21.70
2022-10-29T03:05:26.192Z,15.85
2022-10-29T03:08:29.807Z,11.77
2022-10-29T03:11:33.661Z,15.70
2022-10-29T03:14:37.303Z,19.48
2022-10-29T03:17:40.921Z,16.52
2022-10-29T03:20:46.938Z,13.10
2022-10-29T03:23:50.616Z,11.70
2022-10-29T03:26:54.280Z,15.25
2022-10-29T03:29:58.839Z,19.00
2022-10-29T03:33:02.478Z,11.35
2022-10-29T03:36:09.420Z,18.50
2022-10-29T03:39:13.091Z,12.95
2022-10-29T03:42:16.712Z,12.43
2022-10-29T03:45:20.325Z,19.17
2022-10-29T03:48:25.291Z,10.15
2022-10-29T03:51:30.841Z,18.70
2022-10-29T03:54:34.474Z,33.45
2022-10-29T03:57:38.156Z,19.52
2022-10-29T04:00:41.779Z,16.50
2022-10-29T04:03:45.396Z,17.85
2022-10-29T04:06:50.952Z,17.00
2022-10-29T04:09:54.558Z,14.85
2022-10-29T04:12:58.447Z,14.07
2022-10-29T04:16:02.348Z,18.73
2022-10-29T04:19:06.484Z,22.52
2022-10-29T04:28:58.988Z,22.27
2022-10-29T04:32:02.564Z,18.40
2022-10-29T04:35:07.433Z,17.05
2022-10-29T04:38:13.673Z,22.67
2022-10-29T04:41:17.295Z,25.85
2022-10-29T04:44:21.386Z,28.90
2022-10-29T04:47:25.224Z,28.58
2022-10-29T04:50:29.159Z,16.77
2022-10-29T04:53:34.725Z,27.55
2022-10-29T04:56:38.367Z,21.38
2022-10-29T04:59:42.030Z,19.95
2022-10-29T05:02:49.301Z,22.83
2022-10-29T05:05:52.937Z,21.30
2022-10-29T05:08:58.476Z,22.88
2022-10-29T05:12:02.204Z,20.55
2022-10-29T05:15:06.872Z,14.25
2022-10-29T05:18:11.674Z,18.52
2022-10-29T05:21:15.276Z,21.23
2022-10-29T05:24:20.861Z,14.88
2022-10-29T05:27:24.457Z,21.05
2022-10-29T05:30:28.099Z,19.17
2022-10-29T05:33:31.715Z,14.77
2022-10-29T05:36:35.334Z,19.67
2022-10-29T05:39:40.865Z,16.38
2022-10-29T05:42:47.302Z,20.90
2022-10-29T05:45:51.100Z,12.15
2022-10-29T05:48:54.730Z,16.48
2022-10-29T05:51:58.313Z,17.42
2022-10-29T05:55:03.858Z,16.13
2022-10-29T05:58:09.328Z,16.67
2022-10-29T06:01:13.320Z,18.75
2022-10-29T06:07:20.378Z,15.27
2022-10-29T06:10:26.959Z,15.50
2022-10-29T06:13:30.668Z,18.35
2022-10-29T06:16:34.266Z,17.55
2022-10-29T06:19:37.889Z,17.95
2022-10-29T06:22:41.595Z,23.45
2022-10-29T06:25:47.183Z,19.83
2022-10-29T06:28:50.867Z,20.85
2022-10-29T06:31:54.550Z,23.35
2022-10-29T06:34:58.159Z,21.40
2022-10-29T06:38:05.075Z,23.27
2022-10-29T06:41:13.387Z,23.85
2022-10-29T06:44:17.042Z,22.25
2022-10-29T06:47:20.645Z,18.65
2022-10-29T06:50:24.541Z,22.60
2022-10-29T06:53:29.045Z,22.20
2022-10-29T06:56:34.961Z,19.20
2022-10-29T06:59:38.606Z,23.83
2022-10-29T07:02:42.223Z,24.55
2022-10-29T07:05:46.153Z,23.10
2022-10-29T07:11:55.035Z,23.40
2022-10-29T07:14:58.660Z,21.63
2022-10-29T07:18:04.180Z,26.55
2022-10-29T07:21:09.115Z,31.90
2022-10-29T07:24:12.740Z,25.50
2022-10-29T07:27:18.327Z,27.08
2022-10-29T07:30:22.799Z,24.80
2022-10-29T07:33:26.629Z,27.50
2022-10-29T07:36:31.881Z,32.25
2022-10-29T07:39:35.486Z,38.33
2022-10-29T07:42:41.133Z,32.33
2022-10-29T07:45:49.201Z,36.05
2022-10-29T07:48:52.823Z,23.27
2022-10-29T07:51:56.488Z,26.17
2022-10-29T07:55:02.057Z,29.23
2022-10-29T07:58:09.556Z,31.20
2022-10-29T08:01:13.395Z,27.38
2022-10-29T08:07:20.674Z,30.15
2022-10-29T08:10:24.721Z,30.85
2022-10-29T08:16:33.721Z,26.08
2022-10-29T08:19:37.332Z,27.67
2022-10-29T08:22:41.285Z,31.23
2022-10-29T08:28:50.481Z,31.40
2022-10-29T08:31:54.131Z,34.05
2022-10-29T08:34:57.768Z,33.63
2022-10-29T08:38:01.635Z,34.38
2022-10-29T08:41:36.054Z,31.17
2022-10-29T08:45:00.702Z,34.42
2022-10-29T08:48:26.996Z,31.48
2022-10-29T08:51:35.287Z,31.63
2022-10-29T08:54:43.327Z,42.80
2022-10-29T08:57:52.715Z,42.92
2022-10-29T09:01:00.170Z,45.55
2022-10-29T09:04:05.089Z,48.83
2022-10-29T09:07:33.744Z,50.72
2022-10-29T09:10:42.767Z,51.47
2022-10-29T09:13:56.940Z,54.60
2022-10-29T09:20:24.581Z,47.97
2022-10-29T09:23:40.084Z,55.50
2022-10-29T09:26:53.836Z,47.33
2022-10-29T09:30:07.011Z,47.08
2022-10-29T09:33:16.654Z,53.90
2022-10-29T09:36:23.382Z,47.17
2022-10-29T09:39:34.390Z,52.78
2022-10-29T09:42:41.172Z,45.90
2022-10-29T09:45:50.507Z,42.83
2022-10-29T09:49:03.071Z,53.60
2022-10-29T09:52:11.639Z,46.47
2022-10-29T09:55:22.083Z,47.65
2022-10-29T09:58:28.139Z,37.17
2022-10-29T10:01:31.886Z,41.90
2022-10-29T10:04:45.736Z,44.55
2022-10-29T10:08:07.750Z,36.15
2022-10-29T10:11:21.067Z,30.45
2022-10-29T10:14:26.839Z,20.83
2022-10-29T10:17:33.418Z,34.60
2022-10-29T10:20:42.155Z,33.65
2022-10-29T10:23:47.683Z,36.20
2022-10-29T10:26:51.327Z,27.17
2022-10-29T10:30:15.346Z,28.45
2022-10-29T10:33:26.093Z,47.20
2022-10-29T10:36:31.909Z,25.13
2022-10-29T10:39:38.321Z,22.63
2022-10-29T10:42:46.895Z,27.42
2022-10-29T10:45:56.372Z,20.50
2022-10-29T10:49:02.138Z,32.70
2022-10-29T10:52:16.465Z,21.45
2022-10-29T10:55:25.723Z,18.98
2022-10-29T10:58:32.801Z,23.08
2022-10-29T11:01:39.942Z,21.73
2022-10-29T11:04:44.968Z,20.73
2022-10-29T11:07:58.987Z,24.33
2022-10-29T11:11:07.216Z,23.45
2022-10-29T11:14:16.878Z,24.95
2022-10-29T11:17:28.709Z,21.70
2022-10-29T11:20:35.983Z,28.10
2022-10-29T11:23:48.460Z,21.20
2022-10-29T11:26:57.226Z,30.75
2022-10-29T11:30:06.012Z,22.35
2022-10-29T11:33:18.656Z,18.25
2022-10-29T11:36:24.538Z,24.50
2022-10-29T11:39:34.592Z,22.70
2022-10-29T11:42:38.727Z,21.15
2022-10-29T11:45:52.956Z,24.40
2022-10-29T11:49:07.541Z,17.95
2022-10-29T11:52:14.776Z,21.20
2022-10-29T11:55:29.121Z,24.40
2022-10-29T11:58:40.733Z,19.23
2022-10-29T12:01:54.559Z,21.52
2022-10-29T12:05:03.162Z,33.25
2022-10-29T12:08:30.701Z,31.50
2022-10-29T12:11:43.545Z,17.52
2022-10-29T12:14:52.347Z,22.23
2022-10-29T12:18:06.314Z,24.27
2022-10-29T12:21:15.531Z,22.33
2022-10-29T12:24:33.281Z,26.10
2022-10-29T12:27:44.252Z,20.90
2022-10-29T12:30:58.885Z,24.92
2022-10-29T12:34:07.221Z,19.60
2022-10-29T12:37:17.032Z,16.08
2022-10-29T12:40:24.443Z,16.70
2022-10-29T12:43:32.762Z,16.25
2022-10-29T12:46:42.566Z,19.77
2022-10-29T12:49:55.410Z,27.35
2022-10-29T12:53:06.135Z,27.92
2022-10-29T12:56:16.200Z,22.92
2022-10-29T12:59:31.965Z,20.35
2022-10-29T13:02:47.829Z,17.58
2022-10-29T13:05:51.618Z,20.30
2022-10-29T13:08:57.798Z,18.08
2022-10-29T13:12:02.927Z,33.20
2022-10-29T13:15:14.772Z,17.88
2022-10-29T13:18:23.643Z,16.90
2022-10-29T13:21:58.405Z,20.30
2022-10-29T13:25:29.973Z,19.25
2022-10-29T13:28:50.009Z,14.00
2022-10-29T13:31:59.418Z,21.10
2022-10-29T13:35:27.671Z,19.13
2022-10-29T13:39:04.759Z,20.50
2022-10-29T13:42:13.837Z,22.67
2022-10-29T13:45:21.141Z,14.18
2022-10-29T13:48:29.869Z,18.52
2022-10-29T13:51:41.849Z,20.13
2022-10-29T13:54:52.209Z,11.20
2022-10-29T13:58:03.812Z,12.40
2022-10-29T14:01:13.200Z,26.52
2022-10-29T14:04:25.614Z,17.20
2022-10-29T14:07:35.328Z,12.00
2022-10-29T14:10:47.230Z,15.68
2022-10-29T14:13:52.732Z,13.40
2022-10-29T14:17:12.581Z,15.65
2022-10-29T14:20:27.399Z,17.73
2022-10-29T14:23:32.484Z,17.20
2022-10-29T14:26:40.817Z,19.27
2022-10-29T14:29:44.446Z,23.45
2022-10-29T14:32:48.126Z,27.77
2022-10-29T14:35:52.412Z,10.82
2022-10-29T14:38:59.347Z,22.50
2022-10-29T14:42:05.579Z,20.50
2022-10-29T14:45:19.499Z,14.60
2022-10-29T14:48:23.281Z,16.05
2022-10-29T14:51:28.378Z,18.55
2022-10-29T14:54:37.372Z,22.45
2022-10-29T14:57:46.885Z,17.33
2022-10-29T15:00:57.240Z,20.83
2022-10-29T15:04:01.774Z,19.58
2022-10-29T15:07:31.329Z,12.75
2022-10-29T15:10:46.341Z,19.42
2022-10-29T15:13:51.876Z,15.93
2022-10-29T15:16:55.541Z,20.70
2022-10-29T15:20:03.732Z,24.92
2022-10-29T15:23:17.029Z,22.15
2022-10-29T15:26:22.489Z,17.70
2022-10-29T15:29:34.660Z,14.68
2022-10-29T15:32:39.880Z,19.10
2022-10-29T15:35:51.150Z,14.85
2022-10-29T15:39:27.171Z,20.55
2022-10-29T15:42:33.317Z,13.85
2022-10-29T15:45:39.090Z,16.58
2022-10-29T15:48:42.676Z,13.85
2022-10-29T15:51:46.359Z,12.85
2022-10-29T15:54:50.115Z,10.70
2022-10-29T16:01:00.403Z,24.23
2022-10-29T16:04:04.098Z,11.48
2022-10-29T16:07:10.489Z,15.15
2022-10-29T16:10:19.959Z,21.77
2022-10-29T16:13:24.728Z,16.92
2022-10-29T16:16:32.468Z,17.60
2022-10-29T16:19:36.090Z,16.02
2022-10-29T16:22:39.748Z,19.42
2022-10-29T16:25:43.353Z,16.55
2022-10-29T16:28:47.096Z,16.20
2022-10-29T16:31:52.684Z,19.38
2022-10-29T16:34:56.288Z,16.92
2022-10-29T16:38:00.136Z,17.02
2022-10-29T16:44:07.245Z,20.10
2022-10-29T16:47:12.856Z,16.67
2022-10-29T16:50:18.860Z,24.73
2022-10-29T16:53:22.521Z,20.88
2022-10-29T16:56:26.280Z,19.25
2022-10-29T16:59:30.037Z,13.68
2022-10-29T17:02:35.717Z,20.77
2022-10-29T17:05:40.476Z,16.67
2022-10-29T17:08:44.095Z,25.83
2022-10-29T17:11:47.725Z,15.98
2022-10-29T17:14:51.370Z,14.05
2022-10-29T17:17:57.445Z,17.25
2022-10-29T17:21:02.529Z,17.75
2022-10-29T17:24:07.835Z,14.95
2022-10-29T17:27:11.947Z,21.50
2022-10-29T17:30:15.635Z,34.60
2022-10-29T17:33:21.399Z,20.08
2022-10-29T17:36:25.103Z,20.15
2022-10-29T17:39:28.822Z,22.35
2022-10-29T17:42:32.570Z,17.95
2022-10-29T17:45:36.441Z,18.80
2022-10-29T17:51:45.627Z,18.58
2022-10-29T17:54:49.223Z,18.58
2022-10-29T17:57:52.816Z,21.52
2022-10-29T18:00:56.601Z,20.88
2022-10-29T18:07:07.807Z,25.50
2022-10-29T18:10:11.721Z,19.30
2022-10-29T18:16:21.025Z,19.55
2022-10-29T18:19:27.293Z,26.65
2022-10-29T18:22:30.981Z,18.95
2022-10-29T18:25:35.108Z,17.50
2022-10-29T18:28:38.745Z,20.35
2022-10-29T18:31:44.369Z,22.92
2022-10-29T18:34:49.991Z,16.17
2022-10-29T18:37:53.783Z,20.52
2022-10-29T18:40:58.767Z,28.65
2022-10-29T18:44:02.780Z,29.95
2022-10-29T18:47:06.693Z,19.55
2022-10-29T18:53:15.675Z,24.23
2022-10-29T18:56:20.995Z,18.92
2022-10-29T18:59:24.602Z,19.80
2022-10-29T19:02:28.303Z,15.82
2022-10-29T19:05:36.502Z,22.75
2022-10-29T19:08:42.051Z,20.58
2022-10-29T19:11:46.011Z,21.10
2022-10-29T19:17:52.996Z,23.00
2022-10-29T19:21:03.452Z,46.35
2022-10-29T19:24:08.729Z,18.42
2022-10-29T19:27:12.380Z,24.85
2022-10-29T19:30:16.091Z,17.80
2022-10-29T19:33:19.701Z,25.17
2022-10-29T19:36:27.291Z,19.60
2022-10-29T19:39:30.934Z,22.17
2022-10-29T19:42:34.594Z,16.40
2022-10-29T19:45:40.439Z,16.83
2022-10-29T19:48:44.065Z,22.05
2022-10-29T19:51:49.656Z,16.80
2022-10-29T19:54:53.284Z,17.42
2022-10-29T19:57:56.884Z,17.10
2022-10-29T20:01:05.885Z,15.45
2022-10-29T20:04:09.551Z,25.70
2022-10-29T20:07:15.134Z,15.30
2022-10-29T20:10:19.373Z,16.80
2022-10-29T20:13:22.972Z,18.05
2022-10-29T20:16:26.631Z,17.42
2022-10-29T20:19:30.365Z,17.10
2022-10-29T20:22:35.930Z,18.77
2022-10-29T20:25:39.660Z,17.10
2022-10-29T20:28:43.466Z,18.30
2022-10-29T20:31:47.221Z,20.15
2022-10-29T20:34:51.515Z,21.27
2022-10-29T20:37:57.489Z,16.75
2022-10-29T20:41:01.348Z,14.95
2022-10-29T20:44:05.082Z,13.43
2022-10-29T20:47:08.740Z,23.13
2022-10-29T20:50:12.432Z,17.83
2022-10-29T20:53:18.000Z,14.77
2022-10-29T20:56:22.589Z,20.08
2022-10-29T20:59:26.337Z,17.40
2022-10-29T21:02:30.040Z,23.35
2022-10-29T21:05:33.700Z,21.85
2022-10-29T21:08:40.131Z,15.10
2022-10-29T21:11:43.728Z,24.88
2022-10-29T21:14:47.378Z,19.73
2022-10-29T21:17:51.012Z,22.67
2022-10-29T21:20:54.672Z,16.80
2022-10-29T21:24:00.559Z,16.98
2022-10-29T21:27:04.242Z,21.95
2022-10-29T21:30:09.746Z,21.35
2022-10-29T21:33:13.367Z,17.00
2022-10-29T21:36:17.389Z,17.10
2022-10-29T21:39:22.923Z,19.67
2022-10-29T21:42:26.556Z,16.95
2022-10-29T21:45:30.169Z,21.60
2022-10-29T21:48:34.020Z,18.58
2022-10-29T21:51:37.626Z,17.60
2022-10-29T21:54:43.142Z,15.65
2022-10-29T21:57:46.825Z,17.10
2022-10-29T22:00:50.482Z,24.52
2022-10-29T22:03:54.095Z,21.08
2022-10-29T22:06:57.728Z,24.08
2022-10-29T22:10:03.704Z,20.50
2022-10-29T22:13:09.187Z,18.90
2022-10-29T22:16:15.585Z,25.45
2022-10-29T22:19:19.175Z,15.55
2022-10-29T22:22:22.820Z,20.52
2022-10-29T22:25:28.354Z,14.85
2022-10-29T22:28:32.021Z,15.93
2022-10-29T22:31:35.673Z,18.00
2022-10-29T22:34:39.246Z,21.38
2022-10-29T22:37:42.977Z,20.55
2022-10-29T22:40:48.552Z,10.85
2022-10-29T22:43:52.167Z,24.60
2022-10-29T22:46:55.764Z,17.08
2022-10-29T22:50:00.337Z,17.67
2022-10-29T22:53:03.953Z,18.02
2022-10-29T22:56:12.141Z,14.88
2022-10-29T22:59:15.745Z,18.35
2022-10-29T23:02:19.455Z,21.55
2022-10-29T23:05:23.223Z,20.88
2022-10-29T23:08:27.221Z,17.80
2022-10-29T23:14:38.085Z,28.50
2022-10-29T23:17:41.660Z,15.43
2022-10-29T23:20:45.885Z,23.52
2022-10-29T23:23:50.794Z,14.07
2022-10-29T23:26:56.776Z,20.98
2022-10-29T23:30:00.440Z,22.77
2022-10-29T23:33:04.097Z,27.92
2022-10-29T23:36:10.274Z,25.38
2022-10-29T23:39:14.148Z,16.42
2022-10-29T23:42:19.682Z,14.10
2022-10-29T23:45:23.351Z,14.73
2022-10-29T23:48:27.274Z,26.00
2022-10-29T23:54:34.442Z,16.30
2022-10-29T23:57:40.008Z,21.98
